createdAt,value
2023-01-29T00:01:55.159Z,93710.91
2023-01-29T00:04:22.172Z,93718.19
2023-01-29T00:06:49.015Z,93722.97
2023-01-29T00:09:15.821Z,93716.41
2023-01-29T00:11:42.733Z,93722.44
2023-01-29T00:14:09.711Z,93735.50
2023-01-29T00:16:36.590Z,93721.25
2023-01-29T00:19:04.131Z,93732.06
2023-01-29T00:21:32.197Z,93730.81
2023-01-29T00:23:59.717Z,93727.59
2023-01-29T00:26:27.576Z,93735.50
2023-01-29T00:28:55.128Z,93730.44
2023-01-29T00:31:24.068Z,93735.78
2023-01-29T00:33:51.774Z,93737.56
2023-01-29T00:36:19.996Z,93738.75
2023-01-29T00:38:54.601Z,93734.34
2023-01-29T00:41:41.697Z,93730.19
2023-01-29T00:44:27.078Z,93739.16
2023-01-29T00:46:54.849Z,93729.88
2023-01-29T00:49:22.118Z,93734.38
2023-01-29T00:52:09.043Z,93732.66
2023-01-29T00:54:36.483Z,93728.41
2023-01-29T00:57:04.264Z,93731.06
2023-01-29T00:59:31.923Z,93732.47
2023-01-29T01:02:17.305Z,93740.03
2023-01-29T01:04:44.107Z,93735.09
2023-01-29T01:09:55.309Z,93733.66
2023-01-29T01:12:22.489Z,93739.31
2023-01-29T01:14:49.570Z,93733.13
2023-01-29T01:17:16.459Z,93735.44
2023-01-29T01:19:43.540Z,93737.88
2023-01-29T01:22:10.514Z,93730.50
2023-01-29T01:24:37.653Z,93731.31
2023-01-29T01:27:04.965Z,93730.41
2023-01-29T01:29:31.956Z,93726.28
2023-01-29T01:31:59.396Z,93732.59
2023-01-29T01:34:27.226Z,93734.75
2023-01-29T01:36:56.023Z,93731.22
2023-01-29T01:39:23.747Z,93732.84
2023-01-29T01:41:51.183Z,93739.59
2023-01-29T01:44:52.143Z,93735.72
2023-01-29T01:47:29.374Z,93736.13
2023-01-29T01:49:57.375Z,93742.75
2023-01-29T01:52:24.970Z,93736.28
2023-01-29T01:54:52.175Z,93743.78
2023-01-29T01:57:25.108Z,93749.78
2023-01-29T02:00:10.158Z,93752.69
2023-01-29T02:03:04.993Z,93750.25
2023-01-29T02:05:52.221Z,93758.28
2023-01-29T02:09:11.754Z,93750.53
2023-01-29T02:11:39.018Z,93756.28
2023-01-29T02:14:05.926Z,93754.31
2023-01-29T02:16:37.045Z,93761.63
2023-01-29T02:19:07.167Z,93759.00
2023-01-29T02:22:00.794Z,93758.91
2023-01-29T02:24:41.067Z,93761.06
2023-01-29T02:27:12.557Z,93763.69
2023-01-29T02:30:00.447Z,93764.66
2023-01-29T02:32:31.840Z,93771.88
2023-01-29T02:35:29.211Z,93773.56
2023-01-29T02:38:09.656Z,93770.88
2023-01-29T02:40:44.110Z,93772.31
2023-01-29T02:43:27.376Z,93775.19
2023-01-29T02:46:01.756Z,93781.97
2023-01-29T02:48:39.060Z,93788.56
2023-01-29T02:51:11.019Z,93784.59
2023-01-29T02:54:30.438Z,93789.53
2023-01-29T02:57:03.949Z,93788.19
2023-01-29T02:59:39.533Z,93785.84
2023-01-29T03:02:12.760Z,93794.41
2023-01-29T03:04:47.252Z,93777.28
2023-01-29T03:07:38.211Z,93789.00
2023-01-29T03:10:12.329Z,93781.53
2023-01-29T03:12:40.618Z,93785.94
2023-01-29T03:15:17.166Z,93781.34
2023-01-29T03:18:07.589Z,93787.47
2023-01-29T03:20:38.856Z,93784.84
2023-01-29T03:23:16.360Z,93785.09
2023-01-29T03:26:02.499Z,93789.19
2023-01-29T03:28:50.694Z,93797.44
2023-01-29T03:31:37.038Z,93799.91
2023-01-29T03:34:10.259Z,93798.72
2023-01-29T03:36:45.427Z,93798.72
2023-01-29T03:39:14.311Z,93794.84
2023-01-29T03:41:50.090Z,93794.41
2023-01-29T03:44:52.915Z,93800.97
2023-01-29T03:47:43.864Z,93791.63
2023-01-29T03:50:48.110Z,93791.50
2023-01-29T03:53:48.185Z,93792.41
2023-01-29T03:56:39.648Z,93800.72
2023-01-29T03:59:18.845Z,93789.19
2023-01-29T04:02:10.796Z,93790.06
2023-01-29T04:04:39.379Z,93788.56
2023-01-29T04:07:27.112Z,93793.59
2023-01-29T04:10:10.163Z,93785.94
2023-01-29T04:12:42.860Z,93792.31
2023-01-29T04:15:15.540Z,93792.41
2023-01-29T04:17:47.269Z,93795.75
2023-01-29T04:20:28.173Z,93796.84
2023-01-29T04:22:54.996Z,93801.72
2023-01-29T04:25:31.910Z,93804.50
2023-01-29T04:28:28.767Z,93796.28
2023-01-29T04:30:59.800Z,93793.69
2023-01-29T04:33:38.304Z,93803.03
2023-01-29T04:36:26.597Z,93804.03
2023-01-29T04:39:19.233Z,93809.44
2023-01-29T04:41:55.036Z,93808.91
2023-01-29T04:44:34.220Z,93811.25
2023-01-29T04:47:32.043Z,93808.09
2023-01-29T04:50:13.013Z,93804.88
2023-01-29T04:52:54.451Z,93807.13
2023-01-29T04:55:36.053Z,93807.81
2023-01-29T04:58:05.751Z,93807.81
2023-01-29T05:00:39.365Z,93806.91
2023-01-29T05:03:06.437Z,93813.50
2023-01-29T05:05:33.346Z,93808.47
2023-01-29T05:08:00.371Z,93812.78
2023-01-29T05:10:27.366Z,93815.56
2023-01-29T05:13:01.235Z,93813.31
2023-01-29T05:15:33.881Z,93816.31
2023-01-29T05:18:03.189Z,93820.69
2023-01-29T05:20:34.404Z,93820.44
2023-01-29T05:23:01.148Z,93825.47
2023-01-29T05:25:30.337Z,93823.34
2023-01-29T05:28:07.294Z,93819.81
2023-01-29T05:30:36.351Z,93821.63
2023-01-29T05:33:04.860Z,93833.50
2023-01-29T05:35:31.771Z,93831.16
2023-01-29T05:37:58.699Z,93835.03
2023-01-29T05:40:25.656Z,93836.84
2023-01-29T05:42:52.408Z,93836.56
2023-01-29T05:45:19.794Z,93835.41
2023-01-29T05:47:47.241Z,93827.84
2023-01-29T05:50:15.137Z,93847.22
2023-01-29T05:52:42.359Z,93839.81
2023-01-29T05:55:10.497Z,93847.75
2023-01-29T05:57:37.710Z,93852.53
2023-01-29T06:00:05.139Z,93852.34
2023-01-29T06:02:39.611Z,93853.22
2023-01-29T06:05:06.812Z,93852.59
2023-01-29T06:07:33.735Z,93861.31
2023-01-29T06:10:00.665Z,93853.06
2023-01-29T06:12:27.896Z,93862.63
2023-01-29T06:14:54.581Z,93865.75
2023-01-29T06:17:21.479Z,93864.78
2023-01-29T06:19:48.211Z,93873.06
2023-01-29T06:22:15.065Z,93872.25
2023-01-29T06:24:41.934Z,93876.94
2023-01-29T06:27:08.790Z,93881.09
2023-01-29T06:29:36.540Z,93895.34
2023-01-29T06:32:03.621Z,93895.34
2023-01-29T06:34:30.519Z,93887.59
2023-01-29T06:36:57.399Z,93891.75
2023-01-29T06:39:24.134Z,93899.75
2023-01-29T06:41:50.954Z,93892.91
2023-01-29T06:44:17.774Z,93900.28
2023-01-29T06:46:44.614Z,93891.19
2023-01-29T06:49:11.435Z,93899.66
2023-01-29T06:51:38.300Z,93901.22
2023-01-29T06:54:06.498Z,93898.16
2023-01-29T06:56:33.242Z,93906.88
2023-01-29T06:59:00.223Z,93911.59
2023-01-29T07:01:35.618Z,93909.31
2023-01-29T07:04:03.050Z,93909.88
2023-01-29T07:06:30.592Z,93913.81
2023-01-29T07:08:57.398Z,93911.38
2023-01-29T07:11:24.279Z,93907.88
2023-01-29T07:13:51.150Z,93914.03
2023-01-29T07:16:19.314Z,93923.47
2023-01-29T07:18:46.301Z,93927.72
2023-01-29T07:21:13.183Z,93924.47
2023-01-29T07:23:39.931Z,93932.06
2023-01-29T07:26:07.465Z,93933.94
2023-01-29T07:28:38.142Z,93931.22
2023-01-29T07:31:05.204Z,93939.00
2023-01-29T07:33:32.183Z,93934.28
2023-01-29T07:35:59.237Z,93933.38
2023-01-29T07:38:26.125Z,93929.13
2023-01-29T07:40:53.515Z,93931.81
2023-01-29T07:43:20.891Z,93934.53
2023-01-29T07:45:47.743Z,93938.78
2023-01-29T07:48:14.545Z,93936.41
2023-01-29T07:50:41.534Z,93943.09
2023-01-29T07:53:14.055Z,93951.31
2023-01-29T07:55:41.485Z,93945.75
2023-01-29T07:58:09.125Z,93954.69
2023-01-29T08:00:36.624Z,93951.06
2023-01-29T08:03:11.438Z,93950.91
2023-01-29T08:05:38.398Z,93951.88
2023-01-29T08:08:07.297Z,93955.34
2023-01-29T08:10:39.252Z,93950.41
2023-01-29T08:13:06.809Z,93949.22
2023-01-29T08:15:34.628Z,93955.53
2023-01-29T08:18:02.777Z,93950.44
2023-01-29T08:20:30.026Z,93947.78
2023-01-29T08:23:05.365Z,93951.69
2023-01-29T08:25:32.689Z,93958.19
2023-01-29T08:28:00.812Z,93958.19
2023-01-29T08:30:29.805Z,93958.19
2023-01-29T08:32:56.649Z,93961.34
2023-01-29T08:35:23.723Z,93958.38
2023-01-29T08:37:55.015Z,93967.03
2023-01-29T08:40:22.419Z,93961.88
2023-01-29T08:42:49.211Z,93967.47
2023-01-29T08:45:16.057Z,93977.41
2023-01-29T08:47:49.920Z,93975.41
2023-01-29T08:50:17.972Z,93980.28
2023-01-29T08:52:45.581Z,93977.41
2023-01-29T08:55:12.893Z,93986.63
2023-01-29T08:57:40.308Z,93994.91
2023-01-29T09:00:10.135Z,93996.81
2023-01-29T09:02:37.668Z,93993.47
2023-01-29T09:05:05.981Z,93998.16
2023-01-29T09:07:33.279Z,94002.31
2023-01-29T09:10:03.830Z,93992.22
2023-01-29T09:12:30.613Z,93997.44
2023-01-29T09:14:57.496Z,93988.69
2023-01-29T09:17:24.337Z,93995.81
2023-01-29T09:19:53.144Z,93992.84
2023-01-29T09:22:20.664Z,93991.53
2023-01-29T09:24:47.461Z,93986.03
2023-01-29T09:27:14.210Z,93983.88
2023-01-29T09:29:41.151Z,93987.03
2023-01-29T09:32:07.848Z,93983.94
2023-01-29T09:34:35.042Z,93986.56
2023-01-29T09:37:01.831Z,93981.25
2023-01-29T09:39:28.789Z,93991.91
2023-01-29T09:42:00.450Z,93985.69
2023-01-29T09:44:45.998Z,93983.69
2023-01-29T09:47:15.345Z,93978.44
2023-01-29T09:49:47.422Z,93976.09
2023-01-29T09:52:28.931Z,93972.56
2023-01-29T09:55:10.981Z,93975.69
2023-01-29T09:57:56.081Z,93969.66
2023-01-29T10:00:30.760Z,93971.59
2023-01-29T10:03:03.275Z,93972.28
2023-01-29T10:05:32.631Z,93968.50
2023-01-29T10:08:02.258Z,93965.50
2023-01-29T10:10:36.611Z,93966.09
2023-01-29T10:13:26.284Z,93961.56
2023-01-29T10:16:28.458Z,93964.72
2023-01-29T10:19:04.063Z,93960.59
2023-01-29T10:21:36.727Z,93962.41
2023-01-29T10:24:08.356Z,93959.56
2023-01-29T10:26:37.909Z,93956.81
2023-01-29T10:29:07.165Z,93955.91
2023-01-29T10:31:38.689Z,93955.28
2023-01-29T10:34:11.494Z,93951.78
2023-01-29T10:36:47.146Z,93951.06
2023-01-29T10:39:18.478Z,93949.59
2023-01-29T10:41:45.253Z,93938.81
2023-01-29T10:44:28.616Z,93943.34
2023-01-29T10:47:06.680Z,93939.00
2023-01-29T10:50:17.064Z,93946.41
2023-01-29T10:53:33.855Z,93944.84
2023-01-29T10:56:22.606Z,93940.69
2023-01-29T10:59:29.241Z,93936.34
2023-01-29T11:02:00.220Z,93938.88
2023-01-29T11:04:27.595Z,93934.72
2023-01-29T11:06:54.617Z,93939.31
2023-01-29T11:09:24.068Z,93932.25
2023-01-29T11:11:54.088Z,93931.28
2023-01-29T11:14:42.576Z,93930.38
2023-01-29T11:17:20.335Z,93926.47
2023-01-29T11:19:48.568Z,93926.47
2023-01-29T11:22:34.394Z,93926.84
2023-01-29T11:25:18.856Z,93927.34
2023-01-29T11:27:56.802Z,93923.94
2023-01-29T11:30:24.743Z,93919.88
2023-01-29T11:33:22.274Z,93916.66
2023-01-29T11:35:49.493Z,93914.56
2023-01-29T11:38:16.400Z,93916.41
2023-01-29T11:40:43.703Z,93906.97
2023-01-29T11:43:21.014Z,93892.31
2023-01-29T11:45:54.033Z,93890.81
2023-01-29T11:48:22.543Z,93888.72
2023-01-29T11:51:05.547Z,93892.97
2023-01-29T11:53:37.703Z,93885.19
2023-01-29T11:56:07.642Z,93885.28
2023-01-29T11:58:35.179Z,93894.03
2023-01-29T12:01:03.111Z,93885.69
2023-01-29T12:03:33.598Z,93886.91
2023-01-29T12:06:03.411Z,93888.13
2023-01-29T12:08:39.977Z,93875.25
2023-01-29T12:11:09.887Z,93873.59
2023-01-29T12:13:37.005Z,93879.47
2023-01-29T12:19:33.767Z,93873.81
2023-01-29T12:22:08.927Z,93875.19
2023-01-29T12:24:41.990Z,93880.84
2023-01-29T12:27:17.858Z,93886.31
2023-01-29T12:29:59.653Z,93882.66
2023-01-29T12:32:41.712Z,93884.19
2023-01-29T12:35:19.665Z,93891.00
2023-01-29T12:38:03.958Z,93883.75
2023-01-29T12:40:47.129Z,93889.91
2023-01-29T12:43:17.179Z,93885.25
2023-01-29T12:45:47.383Z,93881.59
2023-01-29T12:48:19.621Z,93879.47
2023-01-29T12:50:47.454Z,93881.94
2023-01-29T12:53:33.619Z,93882.97
2023-01-29T12:56:03.799Z,93870.34
2023-01-29T12:58:37.683Z,93885.78
2023-01-29T13:01:31.295Z,93884.56
2023-01-29T13:04:12.194Z,93883.28
2023-01-29T13:06:42.961Z,93885.47
2023-01-29T13:09:14.702Z,93889.56
2023-01-29T13:11:54.262Z,93876.94
2023-01-29T13:14:36.393Z,93879.91
2023-01-29T13:17:26.860Z,93866.72
2023-01-29T13:19:55.777Z,93865.00
2023-01-29T13:22:29.273Z,93866.50
2023-01-29T13:25:04.615Z,93874.63
2023-01-29T13:27:34.232Z,93874.53
2023-01-29T13:30:01.623Z,93874.47
2023-01-29T13:32:30.836Z,93876.38
2023-01-29T13:35:00.428Z,93886.00
2023-01-29T13:37:34.082Z,93889.47
2023-01-29T13:40:02.062Z,93895.81
2023-01-29T13:42:45.729Z,93895.91
2023-01-29T13:45:26.129Z,93897.22
2023-01-29T13:47:53.413Z,93908.06
2023-01-29T13:50:30.619Z,93901.47
2023-01-29T13:53:02.302Z,93907.34
2023-01-29T13:55:36.655Z,93908.00
2023-01-29T13:58:04.778Z,93905.56
2023-01-29T14:00:34.496Z,93913.16
2023-01-29T14:03:01.237Z,93914.56
2023-01-29T14:05:31.090Z,93917.91
2023-01-29T14:08:02.169Z,93914.78
2023-01-29T14:10:34.123Z,93924.44
2023-01-29T14:13:03.901Z,93917.75
2023-01-29T14:15:35.872Z,93919.38
2023-01-29T14:18:13.528Z,93916.09
2023-01-29T14:21:02.607Z,93924.25
2023-01-29T14:23:41.520Z,93924.47
2023-01-29T14:26:53.242Z,93932.66
2023-01-29T14:29:34.697Z,93933.25
2023-01-29T14:32:08.037Z,93946.72
2023-01-29T14:34:51.551Z,93945.38
2023-01-29T14:37:21.932Z,93942.94
2023-01-29T14:39:50.276Z,93951.97
2023-01-29T14:42:29.767Z,93950.34
2023-01-29T14:45:08.495Z,93952.69
2023-01-29T14:47:35.302Z,93959.34
2023-01-29T14:50:23.246Z,93951.53
2023-01-29T14:52:53.949Z,93947.66
2023-01-29T14:55:38.061Z,93948.25
2023-01-29T14:58:05.003Z,93945.72
2023-01-29T15:00:35.134Z,93945.00
2023-01-29T15:03:03.096Z,93932.56
2023-01-29T15:05:33.019Z,93939.66
2023-01-29T15:08:30.098Z,93938.69
2023-01-29T15:11:18.633Z,93939.31
2023-01-29T15:14:04.627Z,93944.31
2023-01-29T15:16:46.452Z,93940.75
2023-01-29T15:19:36.393Z,93935.72
2023-01-29T15:22:17.645Z,93932.56
2023-01-29T15:24:45.856Z,93929.03
2023-01-29T15:27:18.073Z,93933.41
2023-01-29T15:29:49.109Z,93928.22
2023-01-29T15:32:27.218Z,93934.63
2023-01-29T15:34:55.937Z,93940.69
2023-01-29T15:37:33.743Z,93946.94
2023-01-29T15:40:17.438Z,93949.66
2023-01-29T15:42:46.754Z,93946.31
2023-01-29T15:45:27.387Z,93948.72
2023-01-29T15:47:57.724Z,93950.53
2023-01-29T15:50:24.693Z,93947.19
2023-01-29T15:52:52.546Z,93958.75
2023-01-29T15:55:22.029Z,93947.38
2023-01-29T15:57:49.379Z,93945.66
2023-01-29T16:00:25.038Z,93945.13
2023-01-29T16:02:52.016Z,93951.91
2023-01-29T16:05:22.954Z,93956.03
2023-01-29T16:07:50.936Z,93959.75
2023-01-29T16:10:20.303Z,93970.63
2023-01-29T16:12:51.459Z,93972.19
2023-01-29T16:15:33.714Z,93973.72
2023-01-29T16:18:02.552Z,93970.13
2023-01-29T16:20:37.301Z,93973.00
2023-01-29T16:23:05.026Z,93973.00
2023-01-29T16:25:32.574Z,93973.53
2023-01-29T16:28:03.826Z,93968.41
2023-01-29T16:30:30.640Z,93972.81
2023-01-29T16:33:02.570Z,93969.38
2023-01-29T16:35:29.496Z,93975.25
2023-01-29T16:38:02.760Z,93976.88
2023-01-29T16:40:33.300Z,93975.59
2023-01-29T16:43:28.165Z,93984.09
2023-01-29T16:46:06.040Z,93983.47
2023-01-29T16:48:34.672Z,93983.00
2023-01-29T16:51:13.050Z,93983.94
2023-01-29T16:53:40.010Z,93989.13
2023-01-29T16:56:08.725Z,93984.09
2023-01-29T16:58:35.612Z,93984.19
2023-01-29T17:01:06.081Z,93988.25
2023-01-29T17:03:34.076Z,93983.09
2023-01-29T17:06:11.943Z,93988.88
2023-01-29T17:08:41.924Z,93981.13
2023-01-29T17:11:23.346Z,93978.75
2023-01-29T17:13:50.276Z,93977.72
2023-01-29T17:16:34.439Z,93971.84
2023-01-29T17:19:01.403Z,93981.28
2023-01-29T17:21:29.370Z,93974.16
2023-01-29T17:23:56.148Z,93977.50
2023-01-29T17:26:23.298Z,93976.78
2023-01-29T17:28:51.192Z,93967.22
2023-01-29T17:31:18.020Z,93976.63
2023-01-29T17:33:45.946Z,93968.84
2023-01-29T17:36:15.772Z,93969.31
2023-01-29T17:38:42.963Z,93972.47
2023-01-29T17:41:18.542Z,93972.19
2023-01-29T17:43:45.832Z,93974.44
2023-01-29T17:46:15.703Z,93971.38
2023-01-29T17:48:43.025Z,93981.75
2023-01-29T17:51:13.848Z,93980.50
2023-01-29T17:53:46.033Z,93973.28
2023-01-29T17:56:21.843Z,93978.88
2023-01-29T17:58:48.842Z,93984.91
2023-01-29T18:01:15.650Z,93983.19
2023-01-29T18:03:42.537Z,93977.44
2023-01-29T18:06:10.392Z,93984.75
2023-01-29T18:08:38.581Z,93976.22
2023-01-29T18:11:06.102Z,93979.84
2023-01-29T18:13:33.383Z,93974.78
2023-01-29T18:16:00.460Z,93979.75
2023-01-29T18:18:27.161Z,93977.06
2023-01-29T18:20:53.979Z,93968.75
2023-01-29T18:23:21.104Z,93970.63
2023-01-29T18:25:47.981Z,93967.88
2023-01-29T18:28:17.965Z,93964.34
2023-01-29T18:30:47.915Z,93957.28
2023-01-29T18:33:15.738Z,93958.19
2023-01-29T18:35:48.119Z,93964.25
2023-01-29T18:38:15.507Z,93951.97
2023-01-29T18:40:42.276Z,93969.47
2023-01-29T18:43:09.274Z,93960.56
2023-01-29T18:45:36.269Z,93964.25
2023-01-29T18:48:03.085Z,93963.59
2023-01-29T18:50:29.974Z,93967.31
2023-01-29T18:52:56.821Z,93966.41
2023-01-29T18:55:23.607Z,93962.34
2023-01-29T18:58:25.254Z,93968.03
2023-01-29T19:00:41.268Z,93955.59
2023-01-29T19:03:08.394Z,93967.56
2023-01-29T19:05:35.331Z,93962.63
2023-01-29T19:08:02.145Z,93968.56
2023-01-29T19:10:28.991Z,93965.44
2023-01-29T19:12:55.715Z,93969.94
2023-01-29T19:15:22.985Z,93959.09
2023-01-29T19:17:51.021Z,93955.59
2023-01-29T19:20:18.224Z,93954.78
2023-01-29T19:22:45.309Z,93955.13
2023-01-29T19:25:12.837Z,93955.94
2023-01-29T19:27:39.867Z,93951.53
2023-01-29T19:30:07.633Z,93957.84
2023-01-29T19:32:34.649Z,93955.41
2023-01-29T19:35:01.580Z,93957.84
2023-01-29T19:37:28.667Z,93960.19
2023-01-29T19:39:55.756Z,93953.34
2023-01-29T19:42:22.762Z,93952.25
2023-01-29T19:44:51.361Z,93955.41
2023-01-29T19:47:18.215Z,93956.31
2023-01-29T19:49:45.151Z,93955.13
2023-01-29T19:52:38.509Z,93956.03
2023-01-29T19:55:16.402Z,93958.75
2023-01-29T19:57:43.331Z,93962.44
2023-01-29T20:00:12.200Z,93967.69
2023-01-29T20:02:39.045Z,93962.97
2023-01-29T20:05:07.985Z,93961.34
2023-01-29T20:07:36.095Z,93968.50
2023-01-29T20:10:03.534Z,93969.53
2023-01-29T20:12:30.331Z,93968.56
2023-01-29T20:14:57.212Z,93963.78
2023-01-29T20:17:23.934Z,93961.06
2023-01-29T20:19:50.673Z,93963.44
2023-01-29T20:22:17.493Z,93962.06
2023-01-29T20:24:44.370Z,93959.91
2023-01-29T20:27:11.624Z,93960.59
2023-01-29T20:29:39.331Z,93961.34
2023-01-29T20:32:08.735Z,93961.59
2023-01-29T20:34:36.169Z,93956.38
2023-01-29T20:37:03.294Z,93953.94
2023-01-29T20:39:29.987Z,93965.56
2023-01-29T20:41:57.388Z,93962.06
2023-01-29T20:44:25.119Z,93965.22
2023-01-29T20:46:52.297Z,93965.50
2023-01-29T20:49:19.508Z,93958.06
2023-01-29T20:51:49.110Z,93952.88
2023-01-29T20:54:15.920Z,93953.75
2023-01-29T20:56:44.015Z,93958.63
2023-01-29T20:59:11.829Z,93954.78
2023-01-29T21:01:38.584Z,93955.41
2023-01-29T21:04:05.523Z,93962.97
2023-01-29T21:06:32.347Z,93963.94
2023-01-29T21:08:59.124Z,93962.59
2023-01-29T21:11:26.056Z,93971.34
2023-01-29T21:13:57.623Z,93972.31
2023-01-29T21:16:26.382Z,93966.09
2023-01-29T21:19:03.395Z,93969.44
2023-01-29T21:21:30.255Z,93969.19
2023-01-29T21:23:58.281Z,93965.22
2023-01-29T21:26:25.213Z,93976.81
2023-01-29T21:28:52.112Z,93976.53
2023-01-29T21:31:18.981Z,93970.03
2023-01-29T21:33:45.769Z,93972.84
2023-01-29T21:36:12.700Z,93976.97
2023-01-29T21:38:40.119Z,93977.69
2023-01-29T21:41:09.751Z,93976.53
2023-01-29T21:43:37.080Z,93976.47
2023-01-29T21:46:11.544Z,93972.31
2023-01-29T21:48:39.407Z,93971.34
2023-01-29T21:51:06.526Z,93962.28
2023-01-29T21:53:33.607Z,93967.53
2023-01-29T21:56:01.929Z,93964.28
2023-01-29T21:58:28.924Z,93968.53
2023-01-29T22:00:55.706Z,93966.63
2023-01-29T22:03:22.612Z,93955.72
2023-01-29T22:05:50.235Z,93953.38
2023-01-29T22:08:17.931Z,93946.19
2023-01-29T22:10:45.097Z,93947.81
2023-01-29T22:13:12.064Z,93934.38
2023-01-29T22:15:38.812Z,93930.13
2023-01-29T22:18:05.764Z,93928.06
2023-01-29T22:20:32.630Z,93931.41
2023-01-29T22:23:00.685Z,93926.47
2023-01-29T22:25:27.934Z,93923.94
2023-01-29T22:27:55.101Z,93921.41
2023-01-29T22:30:23.400Z,93920.75
2023-01-29T22:32:50.933Z,93920.84
2023-01-29T22:35:17.835Z,93920.03
2023-01-29T22:37:45.201Z,93913.84
2023-01-29T22:40:13.116Z,93905.59
2023-01-29T22:42:40.070Z,93902.81
2023-01-29T22:45:08.141Z,93905.44
2023-01-29T22:47:34.940Z,93902.91
2023-01-29T22:50:01.880Z,93905.44
2023-01-29T22:52:28.791Z,93906.75
2023-01-29T22:54:55.501Z,93904.41
2023-01-29T22:57:22.350Z,93907.03
2023-01-29T22:59:49.160Z,93906.50
2023-01-29T23:02:15.991Z,93897.84
2023-01-29T23:04:42.907Z,93899.44
2023-01-29T23:07:09.751Z,93899.19
2023-01-29T23:09:36.524Z,93896.66
2023-01-29T23:12:03.462Z,93893.44
2023-01-29T23:14:30.196Z,93890.00
2023-01-29T23:16:57.044Z,93889.47
2023-01-29T23:19:23.862Z,93890.72
2023-01-29T23:21:50.764Z,93893.97
2023-01-29T23:24:17.695Z,93887.38
2023-01-29T23:27:03.165Z,93891.72
2023-01-29T23:29:30.147Z,93888.28
2023-01-29T23:31:56.904Z,93880.47
2023-01-29T23:34:24.054Z,93890.19
2023-01-29T23:36:50.884Z,93882.06
2023-01-29T23:39:17.781Z,93883.69
2023-01-29T23:41:44.567Z,93882.72
2023-01-29T23:44:11.432Z,93879.38
2023-01-29T23:46:38.257Z,93874.88
2023-01-29T23:49:05.041Z,93878.84
2023-01-29T23:51:31.891Z,93879.19
2023-01-29T23:53:58.736Z,93884.88
2023-01-29T23:56:25.771Z,93882.25
2023-01-29T23:58:54.524Z,93882.31
